sensor_id;sensor_type;location;lat;lon;timestamp;P1;durP1;ratioP1;P2;durP2;ratioP2
71303;SDS011;59091;47.446;19.148;2022-10-13T00:02:23;47.72;;;22.23;;
71303;SDS011;59091;47.446;19.148;2022-10-13T00:04:49;40.88;;;23.40;;
71303;SDS011;59091;47.446;19.148;2022-10-13T00:07:14;44.28;;;23.30;;
71303;SDS011;59091;47.446;19.148;2022-10-13T00:09:39;47.53;;;22.67;;
71303;SDS011;59091;47.446;19.148;2022-10-13T00:12:05;45.70;;;22.65;;
71303;SDS011;59091;47.446;19.148;2022-10-13T00:14:30;40.28;;;21.33;;
71303;SDS011;59091;47.446;19.148;2022-10-13T00:16:56;43.53;;;22.08;;
71303;SDS011;59091;47.446;19.148;2022-10-13T00:19:21;39.88;;;22.02;;
71303;SDS011;59091;47.446;19.148;2022-10-13T00:21:47;44.13;;;21.83;;
71303;SDS011;59091;47.446;19.148;2022-10-13T00:24:12;46.25;;;22.30;;
71303;SDS011;59091;47.446;19.148;2022-10-13T00:26:37;42.40;;;22.27;;
71303;SDS011;59091;47.446;19.148;2022-10-13T00:29:03;41.33;;;22.45;;
71303;SDS011;59091;47.446;19.148;2022-10-13T00:31:29;46.53;;;22.33;;
71303;SDS011;59091;47.446;19.148;2022-10-13T00:33:59;46.45;;;22.33;;
71303;SDS011;59091;47.446;19.148;2022-10-13T00:36:25;48.75;;;22.90;;
71303;SDS011;59091;47.446;19.148;2022-10-13T00:38:51;42.55;;;21.48;;
71303;SDS011;59091;47.446;19.148;2022-10-13T00:41:18;40.47;;;21.77;;
71303;SDS011;59091;47.446;19.148;2022-10-13T00:44:00;44.33;;;21.25;;
71303;SDS011;59091;47.446;19.148;2022-10-13T00:46:31;34.65;;;20.33;;
71303;SDS011;59091;47.446;19.148;2022-10-13T00:49:16;39.03;;;21.38;;
71303;SDS011;59091;47.446;19.148;2022-10-13T00:51:43;44.28;;;21.48;;
71303;SDS011;59091;47.446;19.148;2022-10-13T00:54:12;40.75;;;21.63;;
71303;SDS011;59091;47.446;19.148;2022-10-13T00:56:40;44.28;;;21.65;;
71303;SDS011;59091;47.446;19.148;2022-10-13T00:59:14;34.63;;;20.55;;
71303;SDS011;59091;47.446;19.148;2022-10-13T01:01:47;40.33;;;20.98;;
71303;SDS011;59091;47.446;19.148;2022-10-13T01:04:13;40.42;;;21.60;;
71303;SDS011;59091;47.446;19.148;2022-10-13T01:06:40;43.83;;;22.67;;
71303;SDS011;59091;47.446;19.148;2022-10-13T01:09:06;43.28;;;22.65;;
71303;SDS011;59091;47.446;19.148;2022-10-13T01:14:31;39.08;;;22.30;;
71303;SDS011;59091;47.446;19.148;2022-10-13T01:17:22;40.67;;;22.40;;
71303;SDS011;59091;47.446;19.148;2022-10-13T01:30:36;42.05;;;23.60;;
71303;SDS011;59091;47.446;19.148;2022-10-13T01:33:16;45.05;;;23.15;;
71303;SDS011;59091;47.446;19.148;2022-10-13T01:38:46;40.33;;;22.58;;
71303;SDS011;59091;47.446;19.148;2022-10-13T01:42:03;43.60;;;23.35;;
71303;SDS011;59091;47.446;19.148;2022-10-13T01:44:14;41.83;;;21.00;;
71303;SDS011;59091;47.446;19.148;2022-10-13T01:46:45;48.45;;;23.00;;
71303;SDS011;59091;47.446;19.148;2022-10-13T01:49:15;45.47;;;23.05;;
71303;SDS011;59091;47.446;19.148;2022-10-13T01:51:43;39.42;;;22.67;;
71303;SDS011;59091;47.446;19.148;2022-10-13T01:54:09;39.95;;;22.20;;
71303;SDS011;59091;47.446;19.148;2022-10-13T01:56:35;41.22;;;22.45;;
71303;SDS011;59091;47.446;19.148;2022-10-13T01:59:10;43.03;;;23.35;;
71303;SDS011;59091;47.446;19.148;2022-10-13T02:01:42;40.03;;;22.40;;
71303;SDS011;59091;47.446;19.148;2022-10-13T02:07:23;41.08;;;22.13;;
71303;SDS011;59091;47.446;19.148;2022-10-13T02:12:49;43.25;;;23.00;;
71303;SDS011;59091;47.446;19.148;2022-10-13T02:15:18;43.75;;;22.58;;
71303;SDS011;59091;47.446;19.148;2022-10-13T02:17:48;43.08;;;23.35;;
71303;SDS011;59091;47.446;19.148;2022-10-13T02:20:14;37.53;;;21.88;;
71303;SDS011;59091;47.446;19.148;2022-10-13T02:22:42;42.08;;;23.45;;
71303;SDS011;59091;47.446;19.148;2022-10-13T02:25:11;42.17;;;23.38;;
71303;SDS011;59091;47.446;19.148;2022-10-13T02:27:36;46.38;;;23.48;;
71303;SDS011;59091;47.446;19.148;2022-10-13T02:30:02;43.88;;;24.02;;
71303;SDS011;59091;47.446;19.148;2022-10-13T02:32:29;44.42;;;24.05;;
71303;SDS011;59091;47.446;19.148;2022-10-13T02:34:54;43.83;;;24.45;;
71303;SDS011;59091;47.446;19.148;2022-10-13T02:37:20;44.08;;;24.95;;
71303;SDS011;59091;47.446;19.148;2022-10-13T02:39:45;46.70;;;25.38;;
71303;SDS011;59091;47.446;19.148;2022-10-13T02:42:10;45.92;;;23.90;;
71303;SDS011;59091;47.446;19.148;2022-10-13T02:44:36;46.92;;;24.17;;
71303;SDS011;59091;47.446;19.148;2022-10-13T02:47:01;46.63;;;23.95;;
71303;SDS011;59091;47.446;19.148;2022-10-13T02:49:27;42.97;;;23.45;;
71303;SDS011;59091;47.446;19.148;2022-10-13T02:51:52;46.17;;;24.05;;
71303;SDS011;59091;47.446;19.148;2022-10-13T02:54:18;43.25;;;23.95;;
71303;SDS011;59091;47.446;19.148;2022-10-13T02:56:43;46.40;;;23.95;;
71303;SDS011;59091;47.446;19.148;2022-10-13T02:59:09;50.75;;;25.08;;
71303;SDS011;59091;47.446;19.148;2022-10-13T03:01:34;45.53;;;24.70;;
71303;SDS011;59091;47.446;19.148;2022-10-13T03:04:05;43.33;;;24.15;;
71303;SDS011;59091;47.446;19.148;2022-10-13T03:06:33;42.80;;;23.92;;
71303;SDS011;59091;47.446;19.148;2022-10-13T03:08:59;50.08;;;25.60;;
71303;SDS011;59091;47.446;19.148;2022-10-13T03:11:24;52.97;;;24.40;;
71303;SDS011;59091;47.446;19.148;2022-10-13T03:13:50;51.47;;;25.13;;
71303;SDS011;59091;47.446;19.148;2022-10-13T03:16:16;46.88;;;23.60;;
71303;SDS011;59091;47.446;19.148;2022-10-13T03:18:42;46.55;;;24.00;;
71303;SDS011;59091;47.446;19.148;2022-10-13T03:21:08;46.03;;;23.80;;
71303;SDS011;59091;47.446;19.148;2022-10-13T03:23:34;49.28;;;24.33;;
71303;SDS011;59091;47.446;19.148;2022-10-13T03:26:00;45.78;;;24.27;;
71303;SDS011;59091;47.446;19.148;2022-10-13T03:28:26;54.08;;;24.23;;
71303;SDS011;59091;47.446;19.148;2022-10-13T03:31:12;50.55;;;23.98;;
71303;SDS011;59091;47.446;19.148;2022-10-13T03:33:38;44.55;;;23.65;;
71303;SDS011;59091;47.446;19.148;2022-10-13T03:36:04;50.55;;;23.85;;
71303;SDS011;59091;47.446;19.148;2022-10-13T03:38:32;55.55;;;23.58;;
71303;SDS011;59091;47.446;19.148;2022-10-13T03:41:05;44.65;;;22.75;;
71303;SDS011;59091;47.446;19.148;2022-10-13T03:43:31;51.08;;;23.65;;
71303;SDS011;59091;47.446;19.148;2022-10-13T03:45:57;53.10;;;23.05;;
71303;SDS011;59091;47.446;19.148;2022-10-13T03:48:23;43.40;;;23.00;;
71303;SDS011;59091;47.446;19.148;2022-10-13T03:50:49;49.17;;;23.40;;
71303;SDS011;59091;47.446;19.148;2022-10-13T03:53:15;60.28;;;24.52;;
71303;SDS011;59091;47.446;19.148;2022-10-13T03:55:40;47.45;;;22.77;;
71303;SDS011;59091;47.446;19.148;2022-10-13T03:58:06;44.72;;;22.60;;
71303;SDS011;59091;47.446;19.148;2022-10-13T04:00:33;46.00;;;22.58;;
71303;SDS011;59091;47.446;19.148;2022-10-13T04:02:59;44.22;;;23.08;;
71303;SDS011;59091;47.446;19.148;2022-10-13T04:05:25;46.92;;;24.02;;
71303;SDS011;59091;47.446;19.148;2022-10-13T04:07:50;43.03;;;21.92;;
71303;SDS011;59091;47.446;19.148;2022-10-13T04:10:16;40.72;;;23.17;;
71303;SDS011;59091;47.446;19.148;2022-10-13T04:12:41;50.13;;;22.63;;
71303;SDS011;59091;47.446;19.148;2022-10-13T04:15:07;45.25;;;23.55;;
71303;SDS011;59091;47.446;19.148;2022-10-13T04:17:33;43.67;;;21.55;;
71303;SDS011;59091;47.446;19.148;2022-10-13T04:19:58;58.97;;;23.15;;
71303;SDS011;59091;47.446;19.148;2022-10-13T04:22:23;44.90;;;22.92;;
71303;SDS011;59091;47.446;19.148;2022-10-13T04:24:49;42.55;;;22.52;;
71303;SDS011;59091;47.446;19.148;2022-10-13T04:27:14;35.30;;;21.15;;
71303;SDS011;59091;47.446;19.148;2022-10-13T04:29:41;48.05;;;22.00;;
71303;SDS011;59091;47.446;19.148;2022-10-13T04:32:06;48.70;;;23.02;;
71303;SDS011;59091;47.446;19.148;2022-10-13T04:34:31;43.53;;;22.20;;
71303;SDS011;59091;47.446;19.148;2022-10-13T04:36:57;43.75;;;23.55;;
71303;SDS011;59091;47.446;19.148;2022-10-13T04:39:22;48.90;;;22.23;;
71303;SDS011;59091;47.446;19.148;2022-10-13T04:41:48;45.47;;;22.05;;
71303;SDS011;59091;47.446;19.148;2022-10-13T04:44:13;39.92;;;21.80;;
71303;SDS011;59091;47.446;19.148;2022-10-13T04:46:38;39.30;;;22.00;;
71303;SDS011;59091;47.446;19.148;2022-10-13T04:49:04;40.95;;;22.25;;
71303;SDS011;59091;47.446;19.148;2022-10-13T04:51:29;47.33;;;23.27;;
71303;SDS011;59091;47.446;19.148;2022-10-13T04:53:55;43.50;;;22.13;;
71303;SDS011;59091;47.446;19.148;2022-10-13T04:56:21;42.80;;;21.98;;
71303;SDS011;59091;47.446;19.148;2022-10-13T04:58:47;40.30;;;20.75;;
71303;SDS011;59091;47.446;19.148;2022-10-13T05:01:14;45.75;;;21.33;;
71303;SDS011;59091;47.446;19.148;2022-10-13T05:03:41;41.13;;;20.67;;
71303;SDS011;59091;47.446;19.148;2022-10-13T05:06:14;40.15;;;21.15;;
71303;SDS011;59091;47.446;19.148;2022-10-13T05:08:43;45.83;;;21.77;;
71303;SDS011;59091;47.446;19.148;2022-10-13T05:11:09;36.40;;;20.55;;
71303;SDS011;59091;47.446;19.148;2022-10-13T05:13:34;39.58;;;21.23;;
71303;SDS011;59091;47.446;19.148;2022-10-13T05:16:04;51.83;;;20.77;;
71303;SDS011;59091;47.446;19.148;2022-10-13T05:18:34;44.88;;;20.70;;
71303;SDS011;59091;47.446;19.148;2022-10-13T05:21:07;42.08;;;20.75;;
71303;SDS011;59091;47.446;19.148;2022-10-13T05:23:33;43.13;;;19.90;;
71303;SDS011;59091;47.446;19.148;2022-10-13T05:26:01;34.97;;;19.95;;
71303;SDS011;59091;47.446;19.148;2022-10-13T05:28:27;36.17;;;19.00;;
71303;SDS011;59091;47.446;19.148;2022-10-13T05:30:53;35.75;;;20.17;;
71303;SDS011;59091;47.446;19.148;2022-10-13T05:33:18;36.35;;;20.33;;
71303;SDS011;59091;47.446;19.148;2022-10-13T05:35:43;33.67;;;19.95;;
71303;SDS011;59091;47.446;19.148;2022-10-13T05:38:09;39.88;;;20.63;;
71303;SDS011;59091;47.446;19.148;2022-10-13T05:40:34;40.55;;;20.70;;
71303;SDS011;59091;47.446;19.148;2022-10-13T05:43:00;37.90;;;19.65;;
71303;SDS011;59091;47.446;19.148;2022-10-13T05:45:25;38.60;;;19.98;;
71303;SDS011;59091;47.446;19.148;2022-10-13T05:47:53;37.85;;;20.42;;
71303;SDS011;59091;47.446;19.148;2022-10-13T05:50:19;32.17;;;18.83;;
71303;SDS011;59091;47.446;19.148;2022-10-13T05:52:44;36.10;;;19.45;;
71303;SDS011;59091;47.446;19.148;2022-10-13T05:55:10;38.53;;;19.55;;
71303;SDS011;59091;47.446;19.148;2022-10-13T05:57:40;35.25;;;19.63;;
71303;SDS011;59091;47.446;19.148;2022-10-13T06:00:09;37.80;;;20.30;;
71303;SDS011;59091;47.446;19.148;2022-10-13T06:03:11;38.67;;;19.70;;
71303;SDS011;59091;47.446;19.148;2022-10-13T06:05:33;38.47;;;19.73;;
71303;SDS011;59091;47.446;19.148;2022-10-13T06:08:00;40.33;;;20.05;;
71303;SDS011;59091;47.446;19.148;2022-10-13T06:10:26;30.60;;;19.08;;
71303;SDS011;59091;47.446;19.148;2022-10-13T06:12:51;39.45;;;19.27;;
71303;SDS011;59091;47.446;19.148;2022-10-13T06:15:16;33.00;;;19.67;;
71303;SDS011;59091;47.446;19.148;2022-10-13T06:17:42;36.63;;;19.00;;
71303;SDS011;59091;47.446;19.148;2022-10-13T06:20:08;37.47;;;18.70;;
71303;SDS011;59091;47.446;19.148;2022-10-13T06:22:34;35.22;;;19.15;;
71303;SDS011;59091;47.446;19.148;2022-10-13T06:25:00;33.92;;;18.45;;
71303;SDS011;59091;47.446;19.148;2022-10-13T06:27:27;32.42;;;17.48;;
71303;SDS011;59091;47.446;19.148;2022-10-13T06:29:52;29.52;;;17.42;;
71303;SDS011;59091;47.446;19.148;2022-10-13T06:32:18;36.00;;;17.73;;
71303;SDS011;59091;47.446;19.148;2022-10-13T06:34:43;35.50;;;18.02;;
71303;SDS011;59091;47.446;19.148;2022-10-13T06:37:09;36.30;;;19.17;;
71303;SDS011;59091;47.446;19.148;2022-10-13T06:39:34;35.72;;;19.05;;
71303;SDS011;59091;47.446;19.148;2022-10-13T06:42:00;41.10;;;19.10;;
71303;SDS011;59091;47.446;19.148;2022-10-13T06:44:25;31.83;;;18.08;;
71303;SDS011;59091;47.446;19.148;2022-10-13T06:46:50;38.30;;;17.95;;
71303;SDS011;59091;47.446;19.148;2022-10-13T06:49:16;38.55;;;18.75;;
71303;SDS011;59091;47.446;19.148;2022-10-13T06:51:41;34.33;;;17.45;;
71303;SDS011;59091;47.446;19.148;2022-10-13T06:54:07;35.60;;;17.92;;
71303;SDS011;59091;47.446;19.148;2022-10-13T06:56:32;38.58;;;16.60;;
71303;SDS011;59091;47.446;19.148;2022-10-13T06:58:58;28.60;;;14.95;;
71303;SDS011;59091;47.446;19.148;2022-10-13T07:01:23;27.02;;;14.90;;
71303;SDS011;59091;47.446;19.148;2022-10-13T07:03:49;22.85;;;12.27;;
71303;SDS011;59091;47.446;19.148;2022-10-13T07:06:15;18.10;;;9.77;;
71303;SDS011;59091;47.446;19.148;2022-10-13T07:08:41;17.45;;;10.23;;
71303;SDS011;59091;47.446;19.148;2022-10-13T07:11:10;18.92;;;10.20;;
71303;SDS011;59091;47.446;19.148;2022-10-13T07:13:37;17.85;;;9.40;;
71303;SDS011;59091;47.446;19.148;2022-10-13T07:16:04;19.15;;;11.43;;
71303;SDS011;59091;47.446;19.148;2022-10-13T07:18:30;25.67;;;11.35;;
71303;SDS011;59091;47.446;19.148;2022-10-13T07:20:57;19.20;;;10.15;;
71303;SDS011;59091;47.446;19.148;2022-10-13T07:23:23;13.77;;;9.07;;
71303;SDS011;59091;47.446;19.148;2022-10-13T07:25:49;19.50;;;10.07;;
71303;SDS011;59091;47.446;19.148;2022-10-13T07:28:14;16.50;;;10.20;;
71303;SDS011;59091;47.446;19.148;2022-10-13T07:30:39;15.75;;;8.95;;
71303;SDS011;59091;47.446;19.148;2022-10-13T07:33:05;20.38;;;9.60;;
71303;SDS011;59091;47.446;19.148;2022-10-13T07:35:30;22.33;;;10.27;;
71303;SDS011;59091;47.446;19.148;2022-10-13T07:37:56;16.13;;;9.13;;
71303;SDS011;59091;47.446;19.148;2022-10-13T07:40:21;17.48;;;9.30;;
71303;SDS011;59091;47.446;19.148;2022-10-13T07:42:47;16.08;;;9.13;;
71303;SDS011;59091;47.446;19.148;2022-10-13T07:45:12;20.10;;;10.27;;
71303;SDS011;59091;47.446;19.148;2022-10-13T07:47:38;23.08;;;10.02;;
71303;SDS011;59091;47.446;19.148;2022-10-13T07:50:03;26.40;;;10.65;;
71303;SDS011;59091;47.446;19.148;2022-10-13T07:52:29;19.05;;;9.77;;
71303;SDS011;59091;47.446;19.148;2022-10-13T07:54:54;17.15;;;9.23;;
71303;SDS011;59091;47.446;19.148;2022-10-13T07:57:20;18.27;;;8.82;;
71303;SDS011;59091;47.446;19.148;2022-10-13T07:59:46;16.38;;;8.73;;
71303;SDS011;59091;47.446;19.148;2022-10-13T08:02:11;21.27;;;8.88;;
71303;SDS011;59091;47.446;19.148;2022-10-13T08:04:37;15.25;;;7.90;;
71303;SDS011;59091;47.446;19.148;2022-10-13T08:07:03;15.88;;;7.95;;
71303;SDS011;59091;47.446;19.148;2022-10-13T08:09:29;12.93;;;7.18;;
71303;SDS011;59091;47.446;19.148;2022-10-13T08:11:55;17.25;;;7.55;;
71303;SDS011;59091;47.446;19.148;2022-10-13T08:14:20;12.98;;;7.10;;
71303;SDS011;59091;47.446;19.148;2022-10-13T08:16:46;14.43;;;8.38;;
71303;SDS011;59091;47.446;19.148;2022-10-13T08:19:12;16.90;;;8.05;;
71303;SDS011;59091;47.446;19.148;2022-10-13T08:21:39;17.27;;;8.70;;
71303;SDS011;59091;47.446;19.148;2022-10-13T08:24:05;11.18;;;7.60;;
71303;SDS011;59091;47.446;19.148;2022-10-13T08:26:35;15.18;;;8.52;;
71303;SDS011;59091;47.446;19.148;2022-10-13T08:29:00;17.77;;;7.53;;
71303;SDS011;59091;47.446;19.148;2022-10-13T08:31:26;17.40;;;7.35;;
71303;SDS011;59091;47.446;19.148;2022-10-13T08:33:51;10.13;;;6.57;;
71303;SDS011;59091;47.446;19.148;2022-10-13T08:36:17;14.50;;;7.10;;
71303;SDS011;59091;47.446;19.148;2022-10-13T08:38:43;13.07;;;7.60;;
71303;SDS011;59091;47.446;19.148;2022-10-13T08:41:19;13.40;;;8.30;;
71303;SDS011;59091;47.446;19.148;2022-10-13T08:43:51;19.70;;;8.57;;
71303;SDS011;59091;47.446;19.148;2022-10-13T08:49:26;14.85;;;7.97;;
71303;SDS011;59091;47.446;19.148;2022-10-13T08:51:52;12.02;;;8.02;;
71303;SDS011;59091;47.446;19.148;2022-10-13T08:54:18;12.25;;;7.03;;
71303;SDS011;59091;47.446;19.148;2022-10-13T08:56:45;10.68;;;6.78;;
71303;SDS011;59091;47.446;19.148;2022-10-13T08:59:14;12.40;;;6.57;;
71303;SDS011;59091;47.446;19.148;2022-10-13T09:01:41;10.95;;;5.40;;
71303;SDS011;59091;47.446;19.148;2022-10-13T09:07:23;12.30;;;5.78;;
71303;SDS011;59091;47.446;19.148;2022-10-13T09:09:53;12.15;;;5.22;;
71303;SDS011;59091;47.446;19.148;2022-10-13T09:12:20;9.73;;;5.18;;
71303;SDS011;59091;47.446;19.148;2022-10-13T09:15:22;10.60;;;4.68;;
71303;SDS011;59091;47.446;19.148;2022-10-13T09:17:41;10.73;;;5.00;;
71303;SDS011;59091;47.446;19.148;2022-10-13T09:22:38;9.52;;;4.85;;
71303;SDS011;59091;47.446;19.148;2022-10-13T09:30:17;8.18;;;4.50;;
71303;SDS011;59091;47.446;19.148;2022-10-13T09:32:50;6.65;;;4.07;;
71303;SDS011;59091;47.446;19.148;2022-10-13T09:35:30;11.38;;;5.10;;
71303;SDS011;59091;47.446;19.148;2022-10-13T09:38:13;17.60;;;6.00;;
71303;SDS011;59091;47.446;19.148;2022-10-13T09:40:40;11.15;;;5.00;;
71303;SDS011;59091;47.446;19.148;2022-10-13T09:43:25;13.05;;;5.05;;
71303;SDS011;59091;47.446;19.148;2022-10-13T09:45:53;9.50;;;5.20;;
71303;SDS011;59091;47.446;19.148;2022-10-13T09:48:21;16.40;;;5.53;;
71303;SDS011;59091;47.446;19.148;2022-10-13T09:50:51;8.27;;;5.03;;
71303;SDS011;59091;47.446;19.148;2022-10-13T09:53:25;8.80;;;5.10;;
71303;SDS011;59091;47.446;19.148;2022-10-13T09:56:09;8.68;;;4.80;;
71303;SDS011;59091;47.446;19.148;2022-10-13T09:58:50;12.50;;;4.82;;
71303;SDS011;59091;47.446;19.148;2022-10-13T10:01:25;9.10;;;5.43;;
71303;SDS011;59091;47.446;19.148;2022-10-13T10:04:00;6.80;;;4.78;;
71303;SDS011;59091;47.446;19.148;2022-10-13T10:06:27;12.38;;;4.78;;
71303;SDS011;59091;47.446;19.148;2022-10-13T10:08:56;9.50;;;5.40;;
71303;SDS011;59091;47.446;19.148;2022-10-13T10:13:57;11.55;;;5.32;;
71303;SDS011;59091;47.446;19.148;2022-10-13T10:16:30;7.88;;;5.93;;
71303;SDS011;59091;47.446;19.148;2022-10-13T10:19:09;12.68;;;5.20;;
71303;SDS011;59091;47.446;19.148;2022-10-13T10:27:18;13.73;;;5.85;;
71303;SDS011;59091;47.446;19.148;2022-10-13T10:29:58;13.20;;;6.32;;
71303;SDS011;59091;47.446;19.148;2022-10-13T10:32:34;13.02;;;5.28;;
71303;SDS011;59091;47.446;19.148;2022-10-13T10:35:41;11.02;;;5.47;;
71303;SDS011;59091;47.446;19.148;2022-10-13T10:44:13;12.20;;;6.40;;
71303;SDS011;59091;47.446;19.148;2022-10-13T10:46:43;12.55;;;6.40;;
71303;SDS011;59091;47.446;19.148;2022-10-13T10:49:45;14.35;;;6.70;;
71303;SDS011;59091;47.446;19.148;2022-10-13T10:52:10;13.45;;;7.13;;
71303;SDS011;59091;47.446;19.148;2022-10-13T10:54:50;11.18;;;7.15;;
71303;SDS011;59091;47.446;19.148;2022-10-13T10:57:23;13.00;;;6.88;;
71303;SDS011;59091;47.446;19.148;2022-10-13T11:00:04;9.15;;;6.78;;
71303;SDS011;59091;47.446;19.148;2022-10-13T11:02:59;10.70;;;6.75;;
71303;SDS011;59091;47.446;19.148;2022-10-13T11:32:40;13.93;;;7.57;;
71303;SDS011;59091;47.446;19.148;2022-10-13T11:42:48;14.95;;;8.18;;
71303;SDS011;59091;47.446;19.148;2022-10-13T11:59:20;17.55;;;8.75;;
71303;SDS011;59091;47.446;19.148;2022-10-13T12:01:58;16.02;;;8.43;;
71303;SDS011;59091;47.446;19.148;2022-10-13T12:04:45;14.93;;;8.45;;
71303;SDS011;59091;47.446;19.148;2022-10-13T12:07:36;16.30;;;9.23;;
71303;SDS011;59091;47.446;19.148;2022-10-13T12:10:06;16.02;;;8.73;;
71303;SDS011;59091;47.446;19.148;2022-10-13T12:12:44;18.70;;;8.40;;
71303;SDS011;59091;47.446;19.148;2022-10-13T12:15:32;17.55;;;9.43;;
71303;SDS011;59091;47.446;19.148;2022-10-13T12:18:00;15.82;;;8.73;;
71303;SDS011;59091;47.446;19.148;2022-10-13T12:20:27;20.60;;;8.63;;
71303;SDS011;59091;47.446;19.148;2022-10-13T12:22:55;14.27;;;7.90;;
71303;SDS011;59091;47.446;19.148;2022-10-13T12:25:22;12.90;;;7.97;;
71303;SDS011;59091;47.446;19.148;2022-10-13T12:27:51;13.77;;;7.82;;
71303;SDS011;59091;47.446;19.148;2022-10-13T12:30:31;11.25;;;7.75;;
71303;SDS011;59091;47.446;19.148;2022-10-13T12:33:01;17.42;;;8.30;;
71303;SDS011;59091;47.446;19.148;2022-10-13T12:35:28;14.43;;;7.90;;
71303;SDS011;59091;47.446;19.148;2022-10-13T12:38:01;14.00;;;8.73;;
71303;SDS011;59091;47.446;19.148;2022-10-13T12:40:30;16.13;;;8.18;;
71303;SDS011;59091;47.446;19.148;2022-10-13T12:42:56;17.92;;;8.50;;
71303;SDS011;59091;47.446;19.148;2022-10-13T12:45:22;19.23;;;8.48;;
71303;SDS011;59091;47.446;19.148;2022-10-13T12:47:50;14.68;;;8.23;;
71303;SDS011;59091;47.446;19.148;2022-10-13T12:52:52;17.17;;;8.80;;
71303;SDS011;59091;47.446;19.148;2022-10-13T12:55:20;14.70;;;8.32;;
71303;SDS011;59091;47.446;19.148;2022-10-13T12:57:50;15.65;;;8.38;;
71303;SDS011;59091;47.446;19.148;2022-10-13T13:00:19;14.70;;;8.73;;
71303;SDS011;59091;47.446;19.148;2022-10-13T13:05:39;15.50;;;8.38;;
71303;SDS011;59091;47.446;19.148;2022-10-13T13:10:53;18.50;;;7.97;;
71303;SDS011;59091;47.446;19.148;2022-10-13T13:13:23;17.13;;;7.57;;
71303;SDS011;59091;47.446;19.148;2022-10-13T13:15:49;14.23;;;8.15;;
71303;SDS011;59091;47.446;19.148;2022-10-13T13:18:21;14.30;;;7.85;;
71303;SDS011;59091;47.446;19.148;2022-10-13T13:20:47;19.33;;;8.20;;
71303;SDS011;59091;47.446;19.148;2022-10-13T13:23:12;13.43;;;7.63;;
71303;SDS011;59091;47.446;19.148;2022-10-13T13:25:38;12.23;;;8.15;;
71303;SDS011;59091;47.446;19.148;2022-10-13T13:28:08;16.02;;;8.00;;
71303;SDS011;59091;47.446;19.148;2022-10-13T13:30:36;13.98;;;7.68;;
71303;SDS011;59091;47.446;19.148;2022-10-13T13:33:02;15.00;;;7.55;;
71303;SDS011;59091;47.446;19.148;2022-10-13T13:35:27;15.68;;;8.13;;
71303;SDS011;59091;47.446;19.148;2022-10-13T13:37:52;13.50;;;7.53;;
71303;SDS011;59091;47.446;19.148;2022-10-13T13:40:19;17.13;;;7.97;;
71303;SDS011;59091;47.446;19.148;2022-10-13T13:42:49;13.95;;;8.13;;
71303;SDS011;59091;47.446;19.148;2022-10-13T13:45:15;11.63;;;7.50;;
71303;SDS011;59091;47.446;19.148;2022-10-13T13:47:42;13.50;;;7.88;;
71303;SDS011;59091;47.446;19.148;2022-10-13T13:50:12;12.25;;;8.02;;
71303;SDS011;59091;47.446;19.148;2022-10-13T13:52:49;12.85;;;7.97;;
71303;SDS011;59091;47.446;19.148;2022-10-13T13:55:15;18.40;;;8.32;;
71303;SDS011;59091;47.446;19.148;2022-10-13T13:57:41;10.38;;;8.02;;
71303;SDS011;59091;47.446;19.148;2022-10-13T14:00:07;14.70;;;7.85;;
71303;SDS011;59091;47.446;19.148;2022-10-13T14:02:35;15.93;;;7.93;;
71303;SDS011;59091;47.446;19.148;2022-10-13T14:05:01;17.35;;;8.10;;
71303;SDS011;59091;47.446;19.148;2022-10-13T14:07:26;13.45;;;7.68;;
71303;SDS011;59091;47.446;19.148;2022-10-13T14:09:51;10.88;;;7.50;;
71303;SDS011;59091;47.446;19.148;2022-10-13T14:12:17;13.85;;;7.93;;
71303;SDS011;59091;47.446;19.148;2022-10-13T14:14:42;12.80;;;7.80;;
71303;SDS011;59091;47.446;19.148;2022-10-13T14:17:07;15.90;;;8.25;;
71303;SDS011;59091;47.446;19.148;2022-10-13T14:19:33;13.32;;;7.72;;
71303;SDS011;59091;47.446;19.148;2022-10-13T14:21:58;14.02;;;7.60;;
71303;SDS011;59091;47.446;19.148;2022-10-13T14:24:25;12.57;;;7.80;;
71303;SDS011;59091;47.446;19.148;2022-10-13T14:26:51;16.50;;;7.57;;
71303;SDS011;59091;47.446;19.148;2022-10-13T14:29:16;17.95;;;8.02;;
71303;SDS011;59091;47.446;19.148;2022-10-13T14:31:42;11.73;;;7.47;;
71303;SDS011;59091;47.446;19.148;2022-10-13T14:34:07;14.65;;;7.90;;
71303;SDS011;59091;47.446;19.148;2022-10-13T14:36:33;14.23;;;7.78;;
71303;SDS011;59091;47.446;19.148;2022-10-13T14:38:58;15.82;;;7.85;;
71303;SDS011;59091;47.446;19.148;2022-10-13T14:41:24;13.32;;;8.18;;
71303;SDS011;59091;47.446;19.148;2022-10-13T14:43:50;13.07;;;7.53;;
71303;SDS011;59091;47.446;19.148;2022-10-13T14:46:18;12.73;;;7.60;;
71303;SDS011;59091;47.446;19.148;2022-10-13T14:48:43;14.77;;;8.70;;
71303;SDS011;59091;47.446;19.148;2022-10-13T14:51:09;13.18;;;8.25;;
71303;SDS011;59091;47.446;19.148;2022-10-13T14:53:36;20.75;;;8.05;;
71303;SDS011;59091;47.446;19.148;2022-10-13T14:58:47;16.48;;;8.13;;
71303;SDS011;59091;47.446;19.148;2022-10-13T15:01:14;17.10;;;7.45;;
71303;SDS011;59091;47.446;19.148;2022-10-13T15:03:40;15.02;;;8.25;;
71303;SDS011;59091;47.446;19.148;2022-10-13T15:06:06;22.52;;;8.73;;
71303;SDS011;59091;47.446;19.148;2022-10-13T15:08:34;13.05;;;8.25;;
71303;SDS011;59091;47.446;19.148;2022-10-13T15:11:00;15.55;;;8.52;;
71303;SDS011;59091;47.446;19.148;2022-10-13T15:13:29;15.93;;;8.73;;
71303;SDS011;59091;47.446;19.148;2022-10-13T15:15:55;15.20;;;9.80;;
71303;SDS011;59091;47.446;19.148;2022-10-13T15:18:21;15.68;;;9.45;;
71303;SDS011;59091;47.446;19.148;2022-10-13T15:20:47;15.75;;;8.50;;
71303;SDS011;59091;47.446;19.148;2022-10-13T15:23:13;15.60;;;8.27;;
71303;SDS011;59091;47.446;19.148;2022-10-13T15:25:40;18.55;;;8.70;;
71303;SDS011;59091;47.446;19.148;2022-10-13T15:28:14;14.68;;;8.93;;
71303;SDS011;59091;47.446;19.148;2022-10-13T15:30:39;25.67;;;9.27;;
71303;SDS011;59091;47.446;19.148;2022-10-13T15:33:04;20.67;;;8.48;;
71303;SDS011;59091;47.446;19.148;2022-10-13T15:35:30;16.27;;;7.43;;
71303;SDS011;59091;47.446;19.148;2022-10-13T15:37:56;25.75;;;9.00;;
71303;SDS011;59091;47.446;19.148;2022-10-13T15:40:22;19.50;;;8.45;;
71303;SDS011;59091;47.446;19.148;2022-10-13T15:42:47;17.45;;;9.20;;
71303;SDS011;59091;47.446;19.148;2022-10-13T15:45:13;19.65;;;9.07;;
71303;SDS011;59091;47.446;19.148;2022-10-13T15:47:39;21.08;;;8.80;;
71303;SDS011;59091;47.446;19.148;2022-10-13T15:50:04;19.08;;;8.88;;
71303;SDS011;59091;47.446;19.148;2022-10-13T15:52:30;23.80;;;8.82;;
71303;SDS011;59091;47.446;19.148;2022-10-13T15:54:55;34.83;;;8.75;;
71303;SDS011;59091;47.446;19.148;2022-10-13T15:57:21;25.00;;;9.07;;
71303;SDS011;59091;47.446;19.148;2022-10-13T15:59:46;25.05;;;9.10;;
71303;SDS011;59091;47.446;19.148;2022-10-13T16:02:11;20.83;;;9.05;;
71303;SDS011;59091;47.446;19.148;2022-10-13T16:04:37;22.48;;;9.25;;
71303;SDS011;59091;47.446;19.148;2022-10-13T16:07:02;19.50;;;9.15;;
71303;SDS011;59091;47.446;19.148;2022-10-13T16:09:29;25.10;;;8.75;;
71303;SDS011;59091;47.446;19.148;2022-10-13T16:11:55;24.23;;;9.20;;
71303;SDS011;59091;47.446;19.148;2022-10-13T16:14:20;20.38;;;9.43;;